Romero, Texas
Current Conditions -  °F | °C
As of 7:53 PM on Sunday 25 Jan 2015 (Local Time) from KDHT Reporting Station
Clear Clear  
Wind Chill: 30°   Ceiling: Unl
Heat Index: 38°   Visibility: 10mi
Dew Point: 30°   Wind: 12mph
Humidity: 73%   Direction: 280°W
Pressure: 30.22"   Gusts: NA
Location:  35.73°N, 102.93°W
Report Text: KDHT 260153Z AUTO 28010KT 10SM CLR 03/M01 A3022 RMK AO2 SLP237 T00331011
Loading
Personal Weather Stations






























Interactive Weather Map New forecast layout! Learn more

10-Day Weather Forecast

Advertisements
Track Severe Weather on mobile